createdAt,value
2022-11-16T00:02:24.184Z,99774.00
2022-11-16T00:04:52.424Z,99750.00
2022-11-16T00:07:20.782Z,99750.00
2022-11-16T00:09:50.454Z,99767.00
2022-11-16T00:12:18.677Z,99745.00
2022-11-16T00:15:22.952Z,99765.00
2022-11-16T00:17:54.566Z,99741.00
2022-11-16T00:20:24.601Z,99705.00
2022-11-16T00:22:57.712Z,99733.00
2022-11-16T00:25:29.094Z,99754.00
2022-11-16T00:28:06.387Z,99696.00
2022-11-16T00:30:36.301Z,99746.00
2022-11-16T00:33:05.165Z,99738.00
2022-11-16T00:35:33.573Z,99732.00
2022-11-16T00:38:01.764Z,99723.00
2022-11-16T00:40:31.413Z,99731.00
2022-11-16T00:42:59.687Z,99744.00
2022-11-16T00:45:27.977Z,99752.00
2022-11-16T00:48:00.324Z,99713.00
2022-11-16T00:50:29.071Z,99695.00
2022-11-16T00:52:57.312Z,99702.00
2022-11-16T00:55:25.568Z,99701.00
2022-11-16T00:57:55.229Z,99699.00
2022-11-16T01:00:23.589Z,99697.00
2022-11-16T01:03:02.410Z,99709.00
2022-11-16T01:05:31.236Z,99697.00
2022-11-16T01:07:59.483Z,99701.00
2022-11-16T01:10:29.431Z,99733.00
2022-11-16T01:12:58.162Z,99724.00
2022-11-16T01:15:28.677Z,99705.00
2022-11-16T01:17:58.257Z,99680.00
2022-11-16T01:20:29.405Z,99687.00
2022-11-16T01:22:57.923Z,99706.00
2022-11-16T01:25:26.206Z,99712.00
2022-11-16T01:27:54.374Z,99709.00
2022-11-16T01:30:24.033Z,99712.00
2022-11-16T01:32:52.269Z,99718.00
2022-11-16T01:35:20.779Z,99694.00
2022-11-16T01:37:49.295Z,99716.00
2022-11-16T01:40:17.604Z,99679.00
2022-11-16T01:42:45.811Z,99702.00
2022-11-16T01:45:25.222Z,99661.00
2022-11-16T01:47:55.749Z,99698.00
2022-11-16T01:50:24.836Z,99653.00
2022-11-16T01:52:59.034Z,99691.00
2022-11-16T01:55:30.165Z,99650.00
2022-11-16T01:57:58.775Z,99656.00
2022-11-16T02:00:28.564Z,99673.00
2022-11-16T02:02:56.951Z,99675.00
2022-11-16T02:05:35.448Z,99672.00
2022-11-16T02:08:43.602Z,99670.00
2022-11-16T02:11:34.828Z,99647.00
2022-11-16T02:14:19.143Z,99626.00
2022-11-16T02:16:59.197Z,99627.00
2022-11-16T02:19:56.090Z,99646.00
2022-11-16T02:22:41.942Z,99639.00
2022-11-16T02:25:18.862Z,99612.00
2022-11-16T02:28:19.125Z,99636.00
2022-11-16T02:30:52.017Z,99626.00
2022-11-16T02:33:24.085Z,99642.00
2022-11-16T02:35:56.157Z,99647.00
2022-11-16T02:38:29.511Z,99625.00
2022-11-16T02:41:04.618Z,99620.00
2022-11-16T02:43:36.740Z,99612.00
2022-11-16T02:46:11.239Z,99621.00
2022-11-16T02:48:44.274Z,99633.00
2022-11-16T02:51:13.707Z,99639.00
2022-11-16T02:54:00.873Z,99614.00
2022-11-16T02:56:40.961Z,99606.00
2022-11-16T02:59:17.423Z,99598.00
2022-11-16T03:01:56.442Z,99629.00
2022-11-16T03:04:32.094Z,99603.00
2022-11-16T03:07:06.807Z,99630.00
2022-11-16T03:09:40.866Z,99626.00
2022-11-16T03:12:15.723Z,99608.00
2022-11-16T03:14:50.667Z,99624.00
2022-11-16T03:17:28.674Z,99619.00
2022-11-16T03:20:00.811Z,99561.00
2022-11-16T03:22:37.684Z,99621.00
2022-11-16T03:25:08.016Z,99596.00
2022-11-16T03:27:41.369Z,99594.00
2022-11-16T03:30:19.031Z,99595.00
2022-11-16T03:32:59.317Z,99600.00
2022-11-16T03:35:33.288Z,99601.00
2022-11-16T03:38:07.075Z,99531.00
2022-11-16T03:40:39.533Z,99612.00
2022-11-16T03:43:11.266Z,99606.00
2022-11-16T03:45:42.395Z,99628.00
2022-11-16T03:48:15.032Z,99582.00
2022-11-16T03:50:44.980Z,99610.00
2022-11-16T03:53:13.386Z,99610.00
2022-11-16T03:55:47.050Z,99564.00
2022-11-16T03:58:18.665Z,99590.00
2022-11-16T04:00:47.143Z,99607.00
2022-11-16T04:03:16.886Z,99580.00
2022-11-16T04:06:02.440Z,99598.00
2022-11-16T04:08:48.407Z,99575.00
2022-11-16T04:11:38.464Z,99577.00
2022-11-16T04:14:25.027Z,99548.00
2022-11-16T04:17:10.624Z,99564.00
2022-11-16T04:19:58.456Z,99527.00
2022-11-16T04:22:51.482Z,99550.00
2022-11-16T04:25:24.559Z,99534.00
2022-11-16T04:28:11.350Z,99572.00
2022-11-16T04:30:53.502Z,99593.00
2022-11-16T04:33:39.328Z,99592.00
2022-11-16T04:36:30.384Z,99578.00
2022-11-16T04:38:58.620Z,99593.00
2022-11-16T04:41:44.341Z,99537.00
2022-11-16T04:44:12.766Z,99584.00
2022-11-16T04:46:58.534Z,99586.00
2022-11-16T04:49:26.874Z,99577.00
2022-11-16T04:51:56.545Z,99590.00
2022-11-16T04:54:25.263Z,99572.00
2022-11-16T04:56:53.513Z,99571.00
2022-11-16T04:59:21.964Z,99548.00
2022-11-16T05:02:07.643Z,99554.00
2022-11-16T05:04:36.037Z,99592.00
2022-11-16T05:07:10.859Z,99573.00
2022-11-16T05:09:42.785Z,99555.00
2022-11-16T05:12:14.805Z,99569.00
2022-11-16T05:14:43.130Z,99520.00
2022-11-16T05:17:12.285Z,99589.00
2022-11-16T05:19:58.404Z,99587.00
2022-11-16T05:22:28.083Z,99563.00
2022-11-16T05:24:56.369Z,99582.00
2022-11-16T05:27:25.910Z,99589.00
2022-11-16T05:29:55.025Z,99523.00
2022-11-16T05:32:25.188Z,99571.00
2022-11-16T05:34:53.446Z,99584.00
2022-11-16T05:37:23.233Z,99581.00
2022-11-16T05:39:52.931Z,99537.00
2022-11-16T05:42:21.240Z,99591.00
2022-11-16T05:44:49.531Z,99586.00
2022-11-16T05:47:18.116Z,99586.00
2022-11-16T05:49:46.420Z,99618.00
2022-11-16T05:52:14.786Z,99588.00
2022-11-16T05:54:42.994Z,99645.00
2022-11-16T05:57:12.675Z,99630.00
2022-11-16T05:59:40.922Z,99628.00
2022-11-16T06:02:09.155Z,99637.00
2022-11-16T06:04:37.409Z,99616.00
2022-11-16T06:07:05.751Z,99632.00
2022-11-16T06:09:34.032Z,99632.00
2022-11-16T06:12:07.042Z,99655.00
2022-11-16T06:14:38.614Z,99626.00
2022-11-16T06:17:07.622Z,99637.00
2022-11-16T06:19:38.374Z,99639.00
2022-11-16T06:22:08.007Z,99626.00
2022-11-16T06:24:37.255Z,99631.00
2022-11-16T06:27:07.230Z,99659.00
2022-11-16T06:29:40.195Z,99638.00
2022-11-16T06:32:12.454Z,99632.00
2022-11-16T06:34:41.314Z,99662.00
2022-11-16T06:37:10.173Z,99659.00
2022-11-16T06:39:38.662Z,99679.00
2022-11-16T06:42:08.626Z,99674.00
2022-11-16T06:44:38.810Z,99664.00
2022-11-16T06:47:07.279Z,99675.00
2022-11-16T06:49:35.652Z,99647.00
2022-11-16T06:52:04.074Z,99684.00
2022-11-16T06:54:32.483Z,99649.00
2022-11-16T06:57:00.818Z,99654.00
2022-11-16T06:59:29.175Z,99672.00
2022-11-16T07:01:59.213Z,99667.00
2022-11-16T07:13:48.983Z,99703.00
2022-11-16T07:16:17.546Z,99668.00
2022-11-16T07:18:47.188Z,99681.00
2022-11-16T07:21:17.465Z,99650.00
2022-11-16T07:23:46.293Z,99680.00
2022-11-16T07:26:14.591Z,99644.00
2022-11-16T07:28:47.882Z,99688.00
2022-11-16T07:31:17.374Z,99705.00
2022-11-16T07:33:47.068Z,99697.00
2022-11-16T07:36:17.190Z,99718.00
2022-11-16T07:38:45.633Z,99706.00
2022-11-16T07:41:16.484Z,99704.00
2022-11-16T07:43:49.927Z,99737.00
2022-11-16T07:46:47.479Z,99735.00
2022-11-16T07:49:16.054Z,99743.00
2022-11-16T07:51:45.705Z,99709.00
2022-11-16T07:54:14.382Z,99701.00
2022-11-16T07:56:43.142Z,99752.00
2022-11-16T07:59:11.592Z,99754.00
2022-11-16T08:01:39.939Z,99728.00
2022-11-16T08:04:08.200Z,99710.00
2022-11-16T08:06:37.965Z,99746.00
2022-11-16T08:09:06.299Z,99751.00
2022-11-16T08:11:34.692Z,99722.00
2022-11-16T08:14:03.039Z,99732.00
2022-11-16T08:16:33.377Z,99750.00
2022-11-16T08:19:02.331Z,99755.00
2022-11-16T08:21:30.776Z,99769.00
2022-11-16T08:24:00.437Z,99751.00
2022-11-16T08:26:28.861Z,99777.00
2022-11-16T08:28:57.253Z,99782.00
2022-11-16T08:31:28.535Z,99762.00
2022-11-16T08:33:57.085Z,99787.00
2022-11-16T08:36:25.970Z,99769.00
2022-11-16T08:38:56.931Z,99790.00
2022-11-16T08:41:26.947Z,99790.00
2022-11-16T08:43:59.540Z,99781.00
2022-11-16T08:46:28.027Z,99784.00
2022-11-16T08:48:57.955Z,99797.00
2022-11-16T08:51:27.339Z,99784.00
2022-11-16T08:53:59.396Z,99802.00
2022-11-16T08:56:30.268Z,99775.00
2022-11-16T08:58:59.695Z,99812.00
2022-11-16T09:01:31.612Z,99792.00
2022-11-16T09:04:00.817Z,99826.00
2022-11-16T09:06:29.781Z,99796.00
2022-11-16T09:08:58.651Z,99799.00
2022-11-16T09:11:29.194Z,99765.00
2022-11-16T09:13:58.958Z,99825.00
2022-11-16T09:16:27.981Z,99823.00
2022-11-16T09:18:56.844Z,99828.00
2022-11-16T09:21:28.037Z,99830.00
2022-11-16T09:23:57.583Z,99828.00
2022-11-16T09:26:28.387Z,99813.00
2022-11-16T09:28:58.977Z,99826.00
2022-11-16T09:31:28.510Z,99797.00
2022-11-16T09:33:59.412Z,99824.00
2022-11-16T09:36:28.954Z,99822.00
2022-11-16T09:42:01.643Z,99820.00
2022-11-16T09:44:49.953Z,99827.00
2022-11-16T09:47:22.844Z,99848.00
2022-11-16T09:50:01.683Z,99785.00
2022-11-16T09:52:36.535Z,99844.00
2022-11-16T09:55:25.535Z,99849.00
2022-11-16T09:57:59.987Z,99834.00
2022-11-16T10:00:30.905Z,99842.00
2022-11-16T10:03:05.336Z,99843.00
2022-11-16T10:05:40.318Z,99865.00
2022-11-16T10:08:17.831Z,99851.00
2022-11-16T10:10:58.053Z,99859.00
2022-11-16T10:13:46.774Z,99882.00
2022-11-16T10:16:23.242Z,99851.00
2022-11-16T10:18:59.249Z,99876.00
2022-11-16T10:21:43.649Z,99852.00
2022-11-16T10:24:31.844Z,99886.00
2022-11-16T10:27:27.601Z,99900.00
2022-11-16T10:30:10.187Z,99899.00
2022-11-16T10:32:47.508Z,99889.00
2022-11-16T10:35:21.053Z,99863.00
2022-11-16T10:37:51.915Z,99893.00
2022-11-16T10:40:25.806Z,99891.00
2022-11-16T10:43:02.614Z,99884.00
2022-11-16T10:45:40.847Z,99880.00
2022-11-16T10:48:31.036Z,99861.00
2022-11-16T10:50:59.498Z,99850.00
2022-11-16T10:53:30.764Z,99864.00
2022-11-16T10:56:19.095Z,99824.00
2022-11-16T10:58:59.274Z,99859.00
2022-11-16T11:01:39.091Z,99879.00
2022-11-16T11:04:23.949Z,99854.00
2022-11-16T11:06:55.949Z,99838.00
2022-11-16T11:09:29.051Z,99876.00
2022-11-16T11:12:32.609Z,99850.00
2022-11-16T11:15:13.461Z,99843.00
2022-11-16T11:17:47.206Z,99868.00
2022-11-16T11:20:27.900Z,99852.00
2022-11-16T11:23:00.288Z,99876.00
2022-11-16T11:25:32.500Z,99867.00
2022-11-16T11:28:09.036Z,99849.00
2022-11-16T11:30:37.844Z,99870.00
2022-11-16T11:33:13.805Z,99855.00
2022-11-16T11:35:42.604Z,99859.00
2022-11-16T11:38:16.559Z,99833.00
2022-11-16T11:40:59.063Z,99822.00
2022-11-16T11:43:29.574Z,99831.00
2022-11-16T11:46:08.674Z,99830.00
2022-11-16T11:48:48.376Z,99792.00
2022-11-16T11:51:23.716Z,99826.00
2022-11-16T11:53:57.162Z,99803.00
2022-11-16T11:56:26.640Z,99845.00
2022-11-16T11:58:56.083Z,99826.00
2022-11-16T12:02:02.417Z,99844.00
2022-11-16T12:05:29.148Z,99837.00
2022-11-16T12:08:20.448Z,99843.00
2022-11-16T12:10:53.041Z,99831.00
2022-11-16T12:13:57.845Z,99845.00
2022-11-16T12:16:35.431Z,99819.00
2022-11-16T12:19:48.306Z,99822.00
2022-11-16T12:22:41.598Z,99798.00
2022-11-16T12:25:25.003Z,99799.00
2022-11-16T12:28:12.884Z,99808.00
2022-11-16T12:30:58.006Z,99789.00
2022-11-16T12:33:40.203Z,99825.00
2022-11-16T12:36:20.146Z,99793.00
2022-11-16T12:39:03.635Z,99792.00
2022-11-16T12:42:13.095Z,99788.00
2022-11-16T12:45:20.270Z,99804.00
2022-11-16T12:48:18.831Z,99786.00
2022-11-16T12:50:55.179Z,99779.00
2022-11-16T12:53:52.344Z,99808.00
2022-11-16T12:56:34.928Z,99796.00
2022-11-16T12:59:26.632Z,99825.00
2022-11-16T13:02:06.952Z,99791.00
2022-11-16T13:04:41.174Z,99841.00
2022-11-16T13:07:15.211Z,99805.00
2022-11-16T13:09:50.462Z,99790.00
2022-11-16T13:12:23.566Z,99793.00
2022-11-16T13:14:55.815Z,99788.00
2022-11-16T13:17:30.794Z,99762.00
2022-11-16T13:20:22.654Z,99777.00
2022-11-16T13:23:00.818Z,99812.00
2022-11-16T13:25:38.004Z,99788.00
2022-11-16T13:28:17.519Z,99793.00
2022-11-16T13:30:56.546Z,99812.00
2022-11-16T13:33:34.896Z,99787.00
2022-11-16T13:36:46.297Z,99800.00
2022-11-16T13:39:22.251Z,99809.00
2022-11-16T13:42:06.567Z,99794.00
2022-11-16T13:44:37.982Z,99788.00
2022-11-16T13:47:29.516Z,99799.00
2022-11-16T13:50:02.160Z,99783.00
2022-11-16T13:53:36.383Z,99789.00
2022-11-16T13:58:36.712Z,99790.00
2022-11-16T14:01:11.349Z,99761.00
2022-11-16T14:03:41.883Z,99770.00
2022-11-16T14:07:00.807Z,99770.00
2022-11-16T14:09:50.039Z,99784.00
2022-11-16T14:12:51.875Z,99778.00
2022-11-16T14:15:28.685Z,99790.00
2022-11-16T14:18:20.081Z,99740.00
2022-11-16T14:20:58.567Z,99778.00
2022-11-16T14:23:58.966Z,99757.00
2022-11-16T14:26:46.684Z,99749.00
2022-11-16T14:29:40.617Z,99746.00
2022-11-16T14:32:23.582Z,99753.00
2022-11-16T14:34:57.938Z,99772.00
2022-11-16T14:37:35.340Z,99776.00
2022-11-16T14:40:11.447Z,99776.00
2022-11-16T14:43:15.561Z,99760.00
2022-11-16T14:45:49.123Z,99766.00
2022-11-16T14:48:22.334Z,99743.00
2022-11-16T14:51:10.306Z,99770.00
2022-11-16T14:53:45.576Z,99724.00
2022-11-16T14:56:16.933Z,99747.00
2022-11-16T14:58:54.447Z,99724.00
2022-11-16T15:01:27.557Z,99764.00
2022-11-16T15:04:02.524Z,99738.00
2022-11-16T15:06:43.561Z,99764.00
2022-11-16T15:09:21.698Z,99725.00
2022-11-16T15:12:10.041Z,99751.00
2022-11-16T15:14:58.650Z,99750.00
2022-11-16T15:17:33.529Z,99737.00
2022-11-16T15:20:20.874Z,99753.00
2022-11-16T15:22:55.247Z,99720.00
2022-11-16T15:25:35.492Z,99729.00
2022-11-16T15:28:08.717Z,99743.00
2022-11-16T15:30:42.363Z,99710.00
2022-11-16T15:33:17.463Z,99749.00
2022-11-16T15:35:48.751Z,99720.00
2022-11-16T15:38:21.234Z,99742.00
2022-11-16T15:40:53.665Z,99741.00
2022-11-16T15:43:26.140Z,99748.00
2022-11-16T15:45:55.679Z,99719.00
2022-11-16T15:48:28.390Z,99723.00
2022-11-16T15:51:06.677Z,99706.00
2022-11-16T15:53:38.505Z,99722.00
2022-11-16T15:56:12.136Z,99672.00
2022-11-16T15:58:43.686Z,99724.00
2022-11-16T16:01:15.255Z,99680.00
2022-11-16T16:03:58.592Z,99670.00
2022-11-16T16:06:54.658Z,99732.00
2022-11-16T16:09:32.596Z,99649.00
2022-11-16T16:12:20.254Z,99732.00
2022-11-16T16:18:44.088Z,99695.00
2022-11-16T16:21:18.308Z,99708.00
2022-11-16T16:24:01.277Z,99701.00
2022-11-16T16:26:34.387Z,99711.00
2022-11-16T16:29:18.298Z,99697.00
2022-11-16T16:31:51.427Z,99700.00
2022-11-16T16:34:25.201Z,99652.00
2022-11-16T16:36:54.387Z,99654.00
2022-11-16T16:39:42.199Z,99710.00
2022-11-16T16:42:14.318Z,99687.00
2022-11-16T21:15:26.107Z,99437.00
2022-11-16T21:17:54.499Z,99442.00
2022-11-16T21:20:28.099Z,99418.00
2022-11-16T21:22:57.331Z,99417.00
2022-11-16T21:25:26.274Z,99424.00
2022-11-16T21:27:57.136Z,99422.00
2022-11-16T21:30:25.854Z,99425.00
2022-11-16T21:32:54.758Z,99431.00
2022-11-16T21:35:23.817Z,99373.00
2022-11-16T21:37:55.086Z,99415.00
2022-11-16T21:40:23.693Z,99429.00
2022-11-16T21:42:53.940Z,99342.00
2022-11-16T21:45:24.655Z,99404.00
2022-11-16T21:47:53.195Z,99422.00
2022-11-16T21:50:31.615Z,99364.00
2022-11-16T21:53:01.429Z,99371.00
2022-11-16T21:55:30.533Z,99392.00
2022-11-16T21:57:59.375Z,99389.00
2022-11-16T22:00:30.006Z,99391.00
2022-11-16T22:02:58.471Z,99383.00
2022-11-16T22:05:47.559Z,99394.00
2022-11-16T22:08:16.644Z,99393.00
2022-11-16T22:10:53.551Z,99360.00
2022-11-16T22:13:22.137Z,99362.00
2022-11-16T22:15:51.969Z,99357.00
2022-11-16T22:18:20.288Z,99375.00
2022-11-16T22:20:49.080Z,99342.00
2022-11-16T22:23:22.660Z,99333.00
2022-11-16T22:25:51.670Z,99365.00
2022-11-16T22:28:21.390Z,99370.00
2022-11-16T22:30:52.232Z,99333.00
2022-11-16T22:33:21.198Z,99288.00
2022-11-16T22:35:49.533Z,99274.00
2022-11-16T22:38:17.876Z,99332.00
2022-11-16T22:40:51.842Z,99265.00
2022-11-16T22:43:20.727Z,99319.00
2022-11-16T22:45:49.350Z,99261.00
2022-11-16T22:48:19.159Z,99275.00
2022-11-16T22:50:47.946Z,99274.00
2022-11-16T22:53:18.464Z,99239.00
2022-11-16T22:55:50.303Z,99287.00
2022-11-16T22:58:20.016Z,99267.00
2022-11-16T23:00:51.256Z,99216.00
2022-11-16T23:03:23.593Z,99177.00
2022-11-16T23:05:53.791Z,99222.00
2022-11-16T23:08:25.292Z,99230.00
2022-11-16T23:11:22.266Z,99228.00
2022-11-16T23:14:10.784Z,99241.00
2022-11-16T23:16:41.129Z,99155.00
2022-11-16T23:19:34.484Z,99220.00
2022-11-16T23:22:21.229Z,99184.00
2022-11-16T23:25:09.311Z,99181.00
2022-11-16T23:27:45.406Z,99183.00
2022-11-16T23:30:18.008Z,99192.00
2022-11-16T23:32:51.998Z,99178.00
2022-11-16T23:35:25.371Z,99142.00
2022-11-16T23:37:58.241Z,99117.00
2022-11-16T23:40:32.357Z,99148.00
2022-11-16T23:43:19.939Z,99159.00
2022-11-16T23:45:52.828Z,99158.00
2022-11-16T23:48:23.627Z,99135.00
2022-11-16T23:50:55.527Z,99151.00
2022-11-16T23:53:25.244Z,99086.00
2022-11-16T23:55:53.762Z,99107.00
2022-11-16T23:58:22.090Z,99105.00
